N5535W KADS-KBDU
Flight info
| Callsign | N5535W |
|---|---|
| Flight time | N/A |
| Altitude | 20000 |
| Route | DCT |
| Aircraft | B36T/L-BDFGLORY/S |
Departure
| Time | 2026-04-26 02:03 |
|---|---|
| Airport | Addison Airport (KADS) |
Arrival
| Time | N/A |
|---|---|
| Airport | Boulder Municipal Airport (KBDU) |
| Time | Latitude | Longitude | Altitude | Speed | Heading |
|---|---|---|---|---|---|
| 2026-04-26 02:03 | 32.79155 | -96.85567 | 13716 ft | 178 kts | 273° |
| 2026-04-26 02:03 | 32.79215 | -96.87039 | 14063 ft | 179 kts | 273° |
| 2026-04-26 02:04 | 32.79299 | -96.88519 | 14408 ft | 180 kts | 281° |
| 2026-04-26 02:04 | 32.80016 | -96.89733 | 14767 ft | 186 kts | 314° |
| 2026-04-26 02:04 | 32.80975 | -96.90735 | 15126 ft | 181 kts | 312° |
| 2026-04-26 02:04 | 32.81901 | -96.91709 | 15480 ft | 179 kts | 313° |
| 2026-04-26 02:05 | 32.82846 | -96.92670 | 15845 ft | 178 kts | 313° |
| 2026-04-26 02:05 | 32.83787 | -96.93619 | 16209 ft | 177 kts | 313° |
| 2026-04-26 02:05 | 32.84722 | -96.94566 | 16581 ft | 176 kts | 313° |
| 2026-04-26 02:05 | 32.85660 | -96.95519 | 16951 ft | 179 kts | 313° |
| 2026-04-26 02:06 | 32.86616 | -96.96487 | 17334 ft | 182 kts | 313° |
| 2026-04-26 02:06 | 32.87569 | -96.97451 | 17716 ft | 184 kts | 313° |
| 2026-04-26 02:06 | 32.88606 | -96.98360 | 18102 ft | 190 kts | 324° |
| 2026-04-26 02:06 | 32.89846 | -96.98969 | 18445 ft | 195 kts | 332° |
| 2026-04-26 02:07 | 32.91113 | -96.99482 | 18785 ft | 195 kts | 333° |
| 2026-04-26 02:07 | 32.92402 | -96.99994 | 19130 ft | 195 kts | 333° |
| 2026-04-26 02:07 | 32.93693 | -97.00505 | 19479 ft | 195 kts | 333° |
| 2026-04-26 02:07 | 32.94986 | -97.01008 | 19836 ft | 197 kts | 336° |
| 2026-04-26 02:08 | 32.96405 | -97.01159 | 20027 ft | 217 kts | 354° |
| 2026-04-26 02:08 | 32.97963 | -97.00899 | 20029 ft | 233 kts | 2° |
| 2026-04-26 02:08 | 32.99584 | -97.00523 | 20027 ft | 240 kts | 3° |
| 2026-04-26 02:08 | 33.01168 | -97.00126 | 20022 ft | 226 kts | 3° |
| 2026-04-26 02:09 | 33.02666 | -96.99744 | 20015 ft | 221 kts | 3° |
| 2026-04-26 02:09 | 33.04162 | -96.99360 | 20008 ft | 219 kts | 3° |
| 2026-04-26 02:09 | 33.05648 | -96.98975 | 19992 ft | 218 kts | 3° |
| 2026-04-26 02:09 | 33.07108 | -96.98825 | 19992 ft | 203 kts | 340° |
| 2026-04-26 02:10 | 33.08219 | -96.99663 | 19993 ft | 186 kts | 304° |
| 2026-04-26 02:10 | 33.09086 | -97.00807 | 19994 ft | 189 kts | 315° |
| 2026-04-26 02:10 | 33.10090 | -97.01822 | 19999 ft | 189 kts | 313° |
| 2026-04-26 02:10 | 33.11067 | -97.02876 | 20003 ft | 191 kts | 313° |
| 2026-04-26 02:11 | 33.12060 | -97.03922 | 20011 ft | 194 kts | 313° |
| 2026-04-26 02:11 | 33.13084 | -97.04989 | 20012 ft | 196 kts | 314° |
| 2026-04-26 02:11 | 33.14115 | -97.06063 | 20013 ft | 197 kts | 314° |
| 2026-04-26 02:11 | 33.15148 | -97.07142 | 20016 ft | 197 kts | 314° |
| 2026-04-26 02:12 | 33.16182 | -97.08222 | 20014 ft | 198 kts | 314° |
| 2026-04-26 02:12 | 33.17217 | -97.09304 | 20017 ft | 198 kts | 314° |
| 2026-04-26 02:12 | 33.18252 | -97.10387 | 20017 ft | 198 kts | 314° |
| 2026-04-26 02:12 | 33.19290 | -97.11471 | 20017 ft | 198 kts | 314° |
| 2026-04-26 02:13 | 33.20326 | -97.12555 | 20016 ft | 198 kts | 314° |
| 2026-04-26 02:13 | 33.21349 | -97.13624 | 20015 ft | 198 kts | 314° |
| 2026-04-26 02:13 | 33.22385 | -97.14709 | 20015 ft | 198 kts | 313° |
| 2026-04-26 02:13 | 33.23420 | -97.15794 | 20014 ft | 198 kts | 313° |
| 2026-04-26 02:14 | 33.24457 | -97.16881 | 20014 ft | 198 kts | 313° |
| 2026-04-26 02:14 | 33.25492 | -97.17966 | 20015 ft | 198 kts | 314° |
| 2026-04-26 02:14 | 33.26531 | -97.19054 | 20017 ft | 198 kts | 314° |
| 2026-04-26 02:14 | 33.27567 | -97.20141 | 20013 ft | 198 kts | 314° |
| 2026-04-26 02:15 | 33.28604 | -97.21229 | 20014 ft | 198 kts | 314° |
| 2026-04-26 02:15 | 33.29627 | -97.22303 | 20013 ft | 198 kts | 314° |
| 2026-04-26 02:15 | 33.30662 | -97.23388 | 20012 ft | 198 kts | 314° |
| 2026-04-26 02:15 | 33.31696 | -97.24474 | 20010 ft | 198 kts | 314° |
| 2026-04-26 02:16 | 33.32729 | -97.25560 | 20009 ft | 198 kts | 313° |
| 2026-04-26 02:16 | 33.33765 | -97.26648 | 20008 ft | 198 kts | 313° |
| 2026-04-26 02:16 | 33.34799 | -97.27734 | 20007 ft | 198 kts | 313° |
| 2026-04-26 02:16 | 33.35835 | -97.28825 | 20004 ft | 198 kts | 313° |
| 2026-04-26 02:17 | 33.36872 | -97.29914 | 19998 ft | 198 kts | 313° |
| 2026-04-26 02:17 | 33.37907 | -97.31003 | 19996 ft | 198 kts | 313° |
| 2026-04-26 02:17 | 33.38929 | -97.32079 | 19994 ft | 198 kts | 313° |
| 2026-04-26 02:17 | 33.39963 | -97.33168 | 19991 ft | 198 kts | 313° |
| 2026-04-26 02:18 | 33.41000 | -97.34259 | 19990 ft | 198 kts | 313° |
| 2026-04-26 02:18 | 33.42034 | -97.35348 | 19988 ft | 198 kts | 313° |
| 2026-04-26 02:18 | 33.43067 | -97.36438 | 19997 ft | 198 kts | 313° |
| 2026-04-26 02:18 | 33.44101 | -97.37527 | 19998 ft | 198 kts | 313° |
| 2026-04-26 02:19 | 33.45134 | -97.38618 | 19997 ft | 198 kts | 313° |
| 2026-04-26 02:19 | 33.46168 | -97.39708 | 20004 ft | 198 kts | 313° |
| 2026-04-26 02:19 | 33.47188 | -97.40785 | 20000 ft | 199 kts | 313° |
| 2026-04-26 02:19 | 33.48226 | -97.41880 | 20001 ft | 199 kts | 313° |
| 2026-04-26 02:20 | 33.49262 | -97.42973 | 19999 ft | 199 kts | 313° |
| 2026-04-26 02:20 | 33.50298 | -97.44067 | 20000 ft | 198 kts | 313° |
| 2026-04-26 02:20 | 33.51333 | -97.45161 | 19999 ft | 198 kts | 313° |
| 2026-04-26 02:20 | 33.52368 | -97.46255 | 19998 ft | 198 kts | 313° |
| 2026-04-26 02:21 | 33.53403 | -97.47349 | 19997 ft | 198 kts | 313° |
| 2026-04-26 02:21 | 33.54437 | -97.48442 | 19999 ft | 198 kts | 313° |
| 2026-04-26 02:21 | 33.55470 | -97.49536 | 19995 ft | 198 kts | 313° |
| 2026-04-26 02:21 | 33.56491 | -97.50617 | 19983 ft | 198 kts | 313° |
| 2026-04-26 02:22 | 33.57525 | -97.51712 | 19989 ft | 198 kts | 313° |
| 2026-04-26 02:22 | 33.58560 | -97.52808 | 19987 ft | 198 kts | 313° |
| 2026-04-26 02:22 | 33.59595 | -97.53904 | 19985 ft | 198 kts | 313° |
| 2026-04-26 02:22 | 33.60627 | -97.54998 | 19982 ft | 198 kts | 313° |
| 2026-04-26 02:23 | 33.61661 | -97.56094 | 19980 ft | 198 kts | 313° |
| 2026-04-26 02:23 | 33.62693 | -97.57188 | 19981 ft | 198 kts | 313° |
| 2026-04-26 02:23 | 33.63725 | -97.58284 | 19982 ft | 198 kts | 313° |
| 2026-04-26 02:23 | 33.64759 | -97.59381 | 19963 ft | 199 kts | 313° |
| 2026-04-26 02:24 | 33.65785 | -97.60470 | 19958 ft | 200 kts | 314° |
| 2026-04-26 02:24 | 33.66830 | -97.61578 | 19962 ft | 201 kts | 314° |
| 2026-04-26 02:24 | 33.67874 | -97.62688 | 19963 ft | 201 kts | 313° |
| 2026-04-26 02:24 | 33.68921 | -97.63802 | 19962 ft | 201 kts | 314° |
| 2026-04-26 02:25 | 33.69968 | -97.64913 | 19962 ft | 201 kts | 314° |
| 2026-04-26 02:25 | 33.71017 | -97.66029 | 19961 ft | 201 kts | 314° |
| 2026-04-26 02:25 | 33.72064 | -97.67143 | 19970 ft | 202 kts | 313° |
| 2026-04-26 02:25 | 33.73099 | -97.68244 | 19973 ft | 201 kts | 313° |
| 2026-04-26 02:26 | 33.74147 | -97.69360 | 19970 ft | 201 kts | 313° |
| 2026-04-26 02:26 | 33.75197 | -97.70477 | 19974 ft | 202 kts | 313° |
| 2026-04-26 02:26 | 33.76246 | -97.71596 | 19971 ft | 202 kts | 313° |
| 2026-04-26 02:26 | 33.77297 | -97.72715 | 19978 ft | 202 kts | 313° |
| 2026-04-26 02:27 | 33.78346 | -97.73833 | 19977 ft | 202 kts | 313° |
| 2026-04-26 02:27 | 33.79396 | -97.74953 | 19964 ft | 202 kts | 313° |
| 2026-04-26 02:27 | 33.80446 | -97.76073 | 19964 ft | 202 kts | 313° |
| 2026-04-26 02:27 | 33.81495 | -97.77192 | 19964 ft | 202 kts | 313° |
| 2026-04-26 02:28 | 33.82531 | -97.78298 | 19970 ft | 202 kts | 313° |
| 2026-04-26 02:28 | 33.83580 | -97.79417 | 19967 ft | 202 kts | 313° |
| 2026-04-26 02:28 | 33.84630 | -97.80539 | 19966 ft | 202 kts | 313° |
| 2026-04-26 02:28 | 33.85678 | -97.81659 | 19967 ft | 202 kts | 313° |
| 2026-04-26 02:29 | 33.86728 | -97.82780 | 19968 ft | 202 kts | 313° |
| 2026-04-26 02:29 | 33.87775 | -97.83900 | 19968 ft | 202 kts | 313° |
| 2026-04-26 02:29 | 33.88824 | -97.85022 | 19967 ft | 202 kts | 313° |
| 2026-04-26 02:29 | 33.89871 | -97.86143 | 19969 ft | 202 kts | 313° |
| 2026-04-26 02:30 | 33.90907 | -97.87251 | 19968 ft | 202 kts | 313° |
| 2026-04-26 02:30 | 33.91958 | -97.88376 | 19971 ft | 202 kts | 313° |
| 2026-04-26 02:30 | 33.93006 | -97.89499 | 19957 ft | 202 kts | 313° |
| 2026-04-26 02:30 | 33.94055 | -97.90622 | 19957 ft | 202 kts | 313° |
| 2026-04-26 02:31 | 33.95105 | -97.91747 | 19955 ft | 202 kts | 313° |
| 2026-04-26 02:31 | 33.96153 | -97.92871 | 19974 ft | 202 kts | 313° |
| 2026-04-26 02:31 | 33.97203 | -97.93997 | 19961 ft | 202 kts | 313° |
| 2026-04-26 02:31 | 33.98255 | -97.95126 | 19962 ft | 202 kts | 313° |
| 2026-04-26 02:32 | 33.99305 | -97.96253 | 19961 ft | 202 kts | 313° |
| 2026-04-26 02:32 | 34.00340 | -97.97364 | 19956 ft | 202 kts | 313° |
| 2026-04-26 02:32 | 34.01391 | -97.98491 | 19953 ft | 202 kts | 313° |
| 2026-04-26 02:32 | 34.02442 | -97.99622 | 19955 ft | 203 kts | 313° |
| 2026-04-26 02:33 | 34.03492 | -98.00750 | 19952 ft | 202 kts | 313° |
| 2026-04-26 02:33 | 34.04545 | -98.01882 | 19952 ft | 203 kts | 313° |
| 2026-04-26 02:33 | 34.05597 | -98.03013 | 19952 ft | 203 kts | 313° |
| 2026-04-26 02:33 | 34.06648 | -98.04143 | 19958 ft | 203 kts | 313° |
| 2026-04-26 02:34 | 34.07700 | -98.05276 | 19948 ft | 203 kts | 313° |
| 2026-04-26 02:34 | 34.08752 | -98.06409 | 19949 ft | 203 kts | 313° |
| 2026-04-26 02:34 | 34.09792 | -98.07529 | 19949 ft | 203 kts | 313° |
| 2026-04-26 02:34 | 34.10847 | -98.08665 | 19949 ft | 203 kts | 313° |
| 2026-04-26 02:35 | 34.11901 | -98.09801 | 19947 ft | 203 kts | 312° |
| 2026-04-26 02:35 | 34.12955 | -98.10937 | 19947 ft | 203 kts | 312° |
| 2026-04-26 02:35 | 34.14008 | -98.12073 | 19946 ft | 203 kts | 313° |
| 2026-04-26 02:35 | 34.15060 | -98.13208 | 19946 ft | 203 kts | 313° |
| 2026-04-26 02:36 | 34.16111 | -98.14342 | 19954 ft | 203 kts | 313° |
| 2026-04-26 02:36 | 34.17161 | -98.15476 | 19954 ft | 203 kts | 313° |
| 2026-04-26 02:36 | 34.18213 | -98.16611 | 19953 ft | 203 kts | 313° |
| 2026-04-26 02:36 | 34.19251 | -98.17733 | 19954 ft | 203 kts | 313° |
| 2026-04-26 02:37 | 34.20304 | -98.18870 | 19967 ft | 203 kts | 313° |
| 2026-04-26 02:37 | 34.21358 | -98.20010 | 19953 ft | 204 kts | 312° |
| 2026-04-26 02:37 | 34.22414 | -98.21152 | 19953 ft | 204 kts | 312° |
| 2026-04-26 02:37 | 34.23471 | -98.22296 | 19953 ft | 204 kts | 313° |
| 2026-04-26 02:38 | 34.24528 | -98.23440 | 19953 ft | 204 kts | 313° |
| 2026-04-26 02:38 | 34.25586 | -98.24585 | 19956 ft | 204 kts | 312° |
| 2026-04-26 02:38 | 34.26645 | -98.25732 | 19956 ft | 204 kts | 313° |
| 2026-04-26 02:38 | 34.27704 | -98.26879 | 19956 ft | 204 kts | 312° |
| 2026-04-26 02:39 | 34.28750 | -98.28012 | 19956 ft | 205 kts | 313° |
| 2026-04-26 02:39 | 34.29807 | -98.29158 | 19956 ft | 204 kts | 312° |
| 2026-04-26 02:39 | 34.30866 | -98.30306 | 19956 ft | 204 kts | 313° |
| 2026-04-26 02:39 | 34.31923 | -98.31453 | 19956 ft | 204 kts | 313° |
| 2026-04-26 02:40 | 34.32982 | -98.32603 | 19955 ft | 204 kts | 312° |
| 2026-04-26 02:40 | 34.34041 | -98.33752 | 19955 ft | 205 kts | 313° |
| 2026-04-26 02:40 | 34.35100 | -98.34902 | 19952 ft | 205 kts | 312° |
| 2026-04-26 02:40 | 34.36161 | -98.36055 | 19952 ft | 205 kts | 312° |
| 2026-04-26 02:41 | 34.37224 | -98.37210 | 19952 ft | 205 kts | 312° |
| 2026-04-26 02:41 | 34.38271 | -98.38349 | 19952 ft | 205 kts | 312° |
| 2026-04-26 02:41 | 34.39334 | -98.39504 | 19952 ft | 205 kts | 312° |
| 2026-04-26 02:41 | 34.40397 | -98.40660 | 19952 ft | 205 kts | 312° |
| 2026-04-26 02:42 | 34.41460 | -98.41818 | 19951 ft | 205 kts | 312° |
| 2026-04-26 02:42 | 34.42522 | -98.42974 | 19951 ft | 205 kts | 312° |
| 2026-04-26 02:42 | 34.43584 | -98.44130 | 19951 ft | 205 kts | 312° |
| 2026-04-26 02:42 | 34.44645 | -98.45288 | 19956 ft | 206 kts | 312° |
| 2026-04-26 02:43 | 34.46768 | -98.47600 | 19953 ft | 205 kts | 312° |
| 2026-04-26 02:43 | 34.47813 | -98.48741 | 19953 ft | 205 kts | 312° |
| 2026-04-26 02:43 | 34.48870 | -98.49893 | 19947 ft | 205 kts | 312° |
| 2026-04-26 02:44 | 34.49927 | -98.51046 | 19947 ft | 204 kts | 312° |
| 2026-04-26 02:44 | 34.50984 | -98.52201 | 19947 ft | 204 kts | 312° |
| 2026-04-26 02:44 | 34.52040 | -98.53354 | 19946 ft | 204 kts | 312° |
| 2026-04-26 02:44 | 34.53048 | -98.54456 | 19946 ft | 204 kts | 312° |
| 2026-04-26 02:45 | 34.54062 | -98.55565 | 19938 ft | 204 kts | 312° |
| 2026-04-26 02:45 | 34.55117 | -98.56719 | 19938 ft | 204 kts | 312° |
| 2026-04-26 02:45 | 34.55904 | -98.58073 | 19832 ft | 201 kts | 283° |
| 2026-04-26 02:45 | 34.56152 | -98.59751 | 19693 ft | 204 kts | 278° |
| 2026-04-26 02:46 | 34.56583 | -98.61386 | 19538 ft | 209 kts | 299° |
| 2026-04-26 02:46 | 34.57604 | -98.62679 | 19393 ft | 214 kts | 313° |
| 2026-04-26 02:46 | 34.58684 | -98.63873 | 19502 ft | 205 kts | 312° |
| 2026-04-26 02:46 | 34.59721 | -98.65009 | 19689 ft | 197 kts | 312° |
| 2026-04-26 02:47 | 34.60730 | -98.66108 | 19875 ft | 193 kts | 312° |
| 2026-04-26 02:47 | 34.61722 | -98.67189 | 20063 ft | 191 kts | 312° |
| 2026-04-26 02:47 | 34.62703 | -98.68259 | 20253 ft | 189 kts | 312° |
| 2026-04-26 02:47 | 34.63663 | -98.69308 | 20448 ft | 188 kts | 311° |
| 2026-04-26 02:48 | 34.64642 | -98.70378 | 20529 ft | 192 kts | 311° |
| 2026-04-26 02:48 | 34.65651 | -98.71480 | 20533 ft | 198 kts | 312° |
| 2026-04-26 02:48 | 34.66665 | -98.72587 | 20540 ft | 201 kts | 312° |
| 2026-04-26 02:48 | 34.67722 | -98.73742 | 20544 ft | 202 kts | 312° |
| 2026-04-26 02:49 | 34.68774 | -98.74891 | 20546 ft | 204 kts | 312° |
| 2026-04-26 02:49 | 34.69828 | -98.76044 | 20548 ft | 204 kts | 312° |
| 2026-04-26 02:49 | 34.70884 | -98.77199 | 20547 ft | 204 kts | 312° |
| 2026-04-26 02:49 | 34.71940 | -98.78355 | 20549 ft | 205 kts | 312° |
| 2026-04-26 02:50 | 34.72999 | -98.79514 | 20564 ft | 205 kts | 312° |
| 2026-04-26 02:50 | 34.74056 | -98.80672 | 20568 ft | 204 kts | 312° |
| 2026-04-26 02:50 | 34.75112 | -98.81829 | 20572 ft | 204 kts | 312° |
| 2026-04-26 02:50 | 34.76152 | -98.82968 | 20575 ft | 204 kts | 312° |
| 2026-04-26 02:51 | 34.77205 | -98.84123 | 20580 ft | 204 kts | 312° |
| 2026-04-26 02:51 | 34.78260 | -98.85281 | 20582 ft | 204 kts | 311° |
| 2026-04-26 02:51 | 34.79348 | -98.86482 | 20213 ft | 218 kts | 312° |
| 2026-04-26 02:51 | 34.80494 | -98.87737 | 19838 ft | 225 kts | 313° |
| 2026-04-26 02:52 | 34.81645 | -98.88995 | 19745 ft | 218 kts | 313° |
| 2026-04-26 02:52 | 34.82753 | -98.90211 | 19751 ft | 212 kts | 312° |
| 2026-04-26 02:52 | 34.83835 | -98.91402 | 19752 ft | 208 kts | 312° |
| 2026-04-26 02:52 | 34.84907 | -98.92580 | 19753 ft | 207 kts | 312° |
| 2026-04-26 02:53 | 34.85956 | -98.93735 | 19754 ft | 206 kts | 312° |
| 2026-04-26 02:53 | 34.87017 | -98.94902 | 19757 ft | 205 kts | 312° |
| 2026-04-26 02:53 | 34.88077 | -98.96068 | 19759 ft | 205 kts | 312° |
| 2026-04-26 02:53 | 34.89134 | -98.97232 | 19761 ft | 205 kts | 312° |
| 2026-04-26 02:54 | 34.90190 | -98.98396 | 19765 ft | 205 kts | 312° |
| 2026-04-26 02:54 | 34.91245 | -98.99558 | 19768 ft | 205 kts | 312° |
| 2026-04-26 02:54 | 34.92298 | -99.00719 | 19783 ft | 204 kts | 312° |
| 2026-04-26 02:54 | 34.93350 | -99.01878 | 19783 ft | 203 kts | 312° |
| 2026-04-26 02:55 | 34.94385 | -99.03020 | 19785 ft | 203 kts | 312° |
| 2026-04-26 02:55 | 34.95431 | -99.04174 | 19784 ft | 203 kts | 312° |
| 2026-04-26 02:55 | 34.96477 | -99.05329 | 19784 ft | 203 kts | 312° |
| 2026-04-26 02:55 | 34.97522 | -99.06482 | 19784 ft | 203 kts | 312° |
| 2026-04-26 02:56 | 34.98566 | -99.07635 | 19782 ft | 203 kts | 312° |
| 2026-04-26 02:56 | 34.99613 | -99.08792 | 19782 ft | 203 kts | 312° |
| 2026-04-26 02:56 | 35.00658 | -99.09947 | 19787 ft | 203 kts | 312° |
| 2026-04-26 02:56 | 35.01705 | -99.11105 | 19784 ft | 203 kts | 312° |
| 2026-04-26 02:57 | 35.02752 | -99.12263 | 19783 ft | 203 kts | 312° |
| 2026-04-26 02:57 | 35.03801 | -99.13424 | 19786 ft | 203 kts | 312° |
| 2026-04-26 02:57 | 35.04835 | -99.14568 | 19782 ft | 203 kts | 312° |
| 2026-04-26 02:57 | 35.05882 | -99.15728 | 19779 ft | 204 kts | 312° |
| 2026-04-26 02:58 | 35.06931 | -99.16889 | 19781 ft | 204 kts | 312° |
| 2026-04-26 02:58 | 35.07980 | -99.18052 | 19772 ft | 204 kts | 312° |
| 2026-04-26 02:58 | 35.09028 | -99.19213 | 19769 ft | 204 kts | 312° |
| 2026-04-26 02:58 | 35.10076 | -99.20376 | 19765 ft | 204 kts | 312° |
| 2026-04-26 02:59 | 35.11126 | -99.21540 | 19764 ft | 204 kts | 312° |
| 2026-04-26 02:59 | 35.12159 | -99.22687 | 19760 ft | 204 kts | 312° |
| 2026-04-26 02:59 | 35.13207 | -99.23850 | 19757 ft | 204 kts | 312° |
| 2026-04-26 02:59 | 35.14256 | -99.25015 | 19752 ft | 204 kts | 312° |
| 2026-04-26 03:00 | 35.15305 | -99.26180 | 19746 ft | 205 kts | 312° |
| 2026-04-26 03:00 | 35.16358 | -99.27349 | 19771 ft | 205 kts | 311° |
| 2026-04-26 03:00 | 35.17409 | -99.28518 | 19773 ft | 204 kts | 311° |
| 2026-04-26 03:00 | 35.18461 | -99.29689 | 19777 ft | 204 kts | 311° |
| 2026-04-26 03:01 | 35.19510 | -99.30857 | 19780 ft | 204 kts | 311° |
| 2026-04-26 03:01 | 35.20548 | -99.32012 | 19783 ft | 204 kts | 311° |
| 2026-04-26 03:01 | 35.21598 | -99.33181 | 19801 ft | 204 kts | 311° |
| 2026-04-26 03:01 | 35.22650 | -99.34352 | 19802 ft | 204 kts | 311° |
| 2026-04-26 03:02 | 35.23701 | -99.35524 | 19801 ft | 204 kts | 311° |
| 2026-04-26 03:02 | 35.24753 | -99.36696 | 19801 ft | 204 kts | 311° |
| 2026-04-26 03:02 | 35.25803 | -99.37867 | 19781 ft | 205 kts | 311° |
| 2026-04-26 03:02 | 35.26856 | -99.39040 | 19780 ft | 205 kts | 311° |
| 2026-04-26 03:03 | 35.27906 | -99.40214 | 19783 ft | 204 kts | 311° |
| 2026-04-26 03:03 | 35.28957 | -99.41386 | 19789 ft | 204 kts | 311° |
| 2026-04-26 03:03 | 35.30008 | -99.42559 | 19789 ft | 205 kts | 311° |
| 2026-04-26 03:03 | 35.31059 | -99.43734 | 19792 ft | 205 kts | 311° |
| 2026-04-26 03:04 | 35.32096 | -99.44892 | 19796 ft | 205 kts | 311° |
| 2026-04-26 03:04 | 35.33146 | -99.46067 | 19796 ft | 204 kts | 311° |
| 2026-04-26 03:04 | 35.34200 | -99.47246 | 19797 ft | 206 kts | 311° |
| 2026-04-26 03:04 | 35.35257 | -99.48428 | 19797 ft | 206 kts | 311° |
| 2026-04-26 03:05 | 35.36318 | -99.49614 | 19803 ft | 207 kts | 311° |
| 2026-04-26 03:05 | 35.37379 | -99.50803 | 19797 ft | 207 kts | 311° |
| 2026-04-26 03:05 | 35.38443 | -99.51994 | 19795 ft | 208 kts | 311° |
| 2026-04-26 03:05 | 35.39510 | -99.53189 | 19795 ft | 208 kts | 311° |
| 2026-04-26 03:06 | 35.40562 | -99.54369 | 19789 ft | 208 kts | 311° |
| 2026-04-26 03:06 | 35.41629 | -99.55565 | 19787 ft | 208 kts | 311° |
| 2026-04-26 03:06 | 35.42696 | -99.56762 | 19785 ft | 208 kts | 311° |
| 2026-04-26 03:06 | 35.43763 | -99.57958 | 19782 ft | 208 kts | 311° |
| 2026-04-26 03:07 | 35.44830 | -99.59156 | 19777 ft | 208 kts | 311° |
| 2026-04-26 03:07 | 35.45895 | -99.60351 | 19773 ft | 208 kts | 311° |
| 2026-04-26 03:07 | 35.46959 | -99.61547 | 19770 ft | 208 kts | 311° |
| 2026-04-26 03:07 | 35.48023 | -99.62743 | 19768 ft | 207 kts | 311° |
| 2026-04-26 03:08 | 35.49073 | -99.63923 | 19767 ft | 207 kts | 311° |
| 2026-04-26 03:08 | 35.50136 | -99.65118 | 19763 ft | 207 kts | 311° |
| 2026-04-26 03:08 | 35.51199 | -99.66314 | 19759 ft | 207 kts | 311° |
| 2026-04-26 03:08 | 35.52262 | -99.67511 | 19755 ft | 207 kts | 311° |
| 2026-04-26 03:09 | 35.53325 | -99.68707 | 19751 ft | 207 kts | 311° |
| 2026-04-26 03:09 | 35.54387 | -99.69904 | 19747 ft | 207 kts | 311° |
| 2026-04-26 03:09 | 35.55450 | -99.71102 | 19744 ft | 207 kts | 311° |
| 2026-04-26 03:09 | 35.56498 | -99.72283 | 19743 ft | 207 kts | 311° |
| 2026-04-26 03:10 | 35.57561 | -99.73481 | 19741 ft | 207 kts | 311° |
| 2026-04-26 03:10 | 35.58624 | -99.74680 | 19738 ft | 208 kts | 311° |
| 2026-04-26 03:10 | 35.59688 | -99.75880 | 19734 ft | 207 kts | 311° |
| 2026-04-26 03:10 | 35.60750 | -99.77079 | 19728 ft | 207 kts | 311° |
| 2026-04-26 03:11 | 35.61811 | -99.78278 | 19728 ft | 207 kts | 311° |
| 2026-04-26 03:11 | 35.62874 | -99.79478 | 19729 ft | 208 kts | 311° |
| 2026-04-26 03:11 | 35.63936 | -99.80679 | 19728 ft | 207 kts | 311° |
| 2026-04-26 03:11 | 35.64998 | -99.81881 | 19726 ft | 208 kts | 311° |
| 2026-04-26 03:12 | 35.66061 | -99.83082 | 19731 ft | 208 kts | 311° |
| 2026-04-26 03:12 | 35.67108 | -99.84270 | 19732 ft | 208 kts | 311° |
| 2026-04-26 03:12 | 35.68174 | -99.85474 | 19731 ft | 208 kts | 311° |
| 2026-04-26 03:12 | 35.69241 | -99.86679 | 19732 ft | 208 kts | 311° |
| 2026-04-26 03:13 | 35.70307 | -99.87887 | 19730 ft | 208 kts | 311° |
| 2026-04-26 03:13 | 35.71371 | -99.89093 | 19730 ft | 208 kts | 311° |
| 2026-04-26 03:13 | 35.72437 | -99.90301 | 19730 ft | 208 kts | 311° |
| 2026-04-26 03:13 | 35.73502 | -99.91510 | 19729 ft | 208 kts | 311° |
| 2026-04-26 03:14 | 35.74564 | -99.92716 | 19729 ft | 208 kts | 311° |
| 2026-04-26 03:14 | 35.75615 | -99.93908 | 19728 ft | 208 kts | 311° |
| 2026-04-26 03:14 | 35.76679 | -99.95115 | 19727 ft | 208 kts | 311° |
| 2026-04-26 03:14 | 35.77743 | -99.96323 | 19728 ft | 208 kts | 311° |
| 2026-04-26 03:15 | 35.78808 | -99.97532 | 19727 ft | 208 kts | 311° |
| 2026-04-26 03:15 | 35.79871 | -99.98741 | 19725 ft | 208 kts | 311° |
| 2026-04-26 03:15 | 35.80935 | -99.99951 | 19724 ft | 208 kts | 311° |
| 2026-04-26 03:15 | 35.81997 | -100.01159 | 19725 ft | 208 kts | 311° |
| 2026-04-26 03:16 | 35.83061 | -100.02369 | 19735 ft | 208 kts | 311° |
| 2026-04-26 03:16 | 35.84125 | -100.03579 | 19737 ft | 208 kts | 311° |
| 2026-04-26 03:16 | 35.85173 | -100.04774 | 19740 ft | 208 kts | 311° |
| 2026-04-26 03:16 | 35.86232 | -100.05981 | 19737 ft | 207 kts | 311° |
| 2026-04-26 03:17 | 35.87291 | -100.07187 | 19733 ft | 207 kts | 311° |
| 2026-04-26 03:17 | 35.88348 | -100.08393 | 19734 ft | 207 kts | 311° |
| 2026-04-26 03:17 | 35.89405 | -100.09597 | 19733 ft | 207 kts | 311° |
| 2026-04-26 03:17 | 35.90459 | -100.10800 | 19733 ft | 207 kts | 311° |
| 2026-04-26 03:18 | 35.91516 | -100.12006 | 19733 ft | 207 kts | 311° |